sensor_id;sensor_type;location;lat;lon;timestamp;pressure;altitude;pressure_sealevel;temperature;humidity
9525;BME280;15940;48.734;9.112;2023-04-09T00:00:39;97200.72;;;5.74;81.51
9525;BME280;15940;48.734;9.112;2023-04-09T00:03:07;97205.53;;;5.80;81.71
9525;BME280;15940;48.734;9.112;2023-04-09T00:05:38;97206.22;;;5.71;81.81
9525;BME280;15940;48.734;9.112;2023-04-09T00:08:05;97202.19;;;5.76;81.95
9525;BME280;15940;48.734;9.112;2023-04-09T00:10:32;97206.84;;;5.75;81.75
9525;BME280;15940;48.734;9.112;2023-04-09T00:12:59;97209.81;;;5.77;82.43
9525;BME280;15940;48.734;9.112;2023-04-09T00:15:26;97202.72;;;5.83;81.99
9525;BME280;15940;48.734;9.112;2023-04-09T00:17:53;97211.38;;;5.87;81.88
9525;BME280;15940;48.734;9.112;2023-04-09T00:20:22;97207.72;;;5.94;81.98
9525;BME280;15940;48.734;9.112;2023-04-09T00:22:49;97207.03;;;6.03;81.68
9525;BME280;15940;48.734;9.112;2023-04-09T00:25:16;97201.66;;;6.03;81.38
9525;BME280;15940;48.734;9.112;2023-04-09T00:27:43;97198.34;;;5.98;81.35
9525;BME280;15940;48.734;9.112;2023-04-09T00:30:10;97195.66;;;5.98;81.60
9525;BME280;15940;48.734;9.112;2023-04-09T00:32:37;97199.56;;;5.97;81.38
9525;BME280;15940;48.734;9.112;2023-04-09T00:35:05;97192.34;;;5.94;81.66
9525;BME280;15940;48.734;9.112;2023-04-09T00:37:33;97202.03;;;5.92;81.17
9525;BME280;15940;48.734;9.112;2023-04-09T00:40:00;97194.19;;;5.85;81.24
9525;BME280;15940;48.734;9.112;2023-04-09T00:42:31;97203.47;;;5.84;81.15
9525;BME280;15940;48.734;9.112;2023-04-09T00:44:58;97195.53;;;5.80;81.50
9525;BME280;15940;48.734;9.112;2023-04-09T00:47:25;97193.66;;;5.90;81.54
9525;BME280;15940;48.734;9.112;2023-04-09T00:49:53;97187.31;;;5.84;82.21
9525;BME280;15940;48.734;9.112;2023-04-09T00:52:21;97190.41;;;5.95;81.69
9525;BME280;15940;48.734;9.112;2023-04-09T00:54:50;97189.25;;;5.83;81.55
9525;BME280;15940;48.734;9.112;2023-04-09T00:57:18;97191.50;;;5.85;81.43
9525;BME280;15940;48.734;9.112;2023-04-09T00:59:45;97195.91;;;5.91;81.48
9525;BME280;15940;48.734;9.112;2023-04-09T01:02:12;97195.78;;;5.95;81.40
9525;BME280;15940;48.734;9.112;2023-04-09T01:04:41;97198.28;;;5.89;81.71
9525;BME280;15940;48.734;9.112;2023-04-09T01:07:30;97191.91;;;5.96;81.99
9525;BME280;15940;48.734;9.112;2023-04-09T01:10:10;97191.47;;;5.97;81.57
9525;BME280;15940;48.734;9.112;2023-04-09T01:12:49;97182.88;;;5.90;81.30
9525;BME280;15940;48.734;9.112;2023-04-09T01:15:25;97191.19;;;5.83;81.16
9525;BME280;15940;48.734;9.112;2023-04-09T01:18:01;97184.84;;;5.89;81.90
9525;BME280;15940;48.734;9.112;2023-04-09T01:20:38;97190.00;;;5.84;82.07
9525;BME280;15940;48.734;9.112;2023-04-09T01:23:15;97185.69;;;5.86;81.99
9525;BME280;15940;48.734;9.112;2023-04-09T01:26:00;97189.13;;;5.87;82.18
9525;BME280;15940;48.734;9.112;2023-04-09T01:28:34;97182.13;;;5.89;81.80
9525;BME280;15940;48.734;9.112;2023-04-09T01:31:06;97180.44;;;5.83;81.90
9525;BME280;15940;48.734;9.112;2023-04-09T01:33:37;97191.16;;;5.73;81.80
9525;BME280;15940;48.734;9.112;2023-04-09T01:36:06;97194.59;;;5.74;81.88
9525;BME280;15940;48.734;9.112;2023-04-09T01:38:35;97188.47;;;5.73;82.60
9525;BME280;15940;48.734;9.112;2023-04-09T01:41:03;97196.28;;;5.81;82.26
9525;BME280;15940;48.734;9.112;2023-04-09T01:43:33;97194.44;;;5.78;82.13
9525;BME280;15940;48.734;9.112;2023-04-09T01:46:01;97194.72;;;5.70;82.55
9525;BME280;15940;48.734;9.112;2023-04-09T01:48:30;97192.78;;;5.71;82.11
9525;BME280;15940;48.734;9.112;2023-04-09T01:50:59;97183.03;;;5.64;81.96
9525;BME280;15940;48.734;9.112;2023-04-09T01:53:26;97189.78;;;5.69;82.14
9525;BME280;15940;48.734;9.112;2023-04-09T01:55:53;97183.63;;;5.68;82.10
9525;BME280;15940;48.734;9.112;2023-04-09T01:58:22;97191.59;;;5.72;82.50
9525;BME280;15940;48.734;9.112;2023-04-09T02:00:54;97190.69;;;5.75;82.22
9525;BME280;15940;48.734;9.112;2023-04-09T02:03:24;97180.19;;;5.68;81.85
9525;BME280;15940;48.734;9.112;2023-04-09T02:05:58;97192.47;;;5.69;82.12
9525;BME280;15940;48.734;9.112;2023-04-09T02:08:27;97181.13;;;5.74;82.46
9525;BME280;15940;48.734;9.112;2023-04-09T02:10:57;97185.03;;;5.73;82.12
9525;BME280;15940;48.734;9.112;2023-04-09T02:13:27;97185.47;;;5.71;82.20
9525;BME280;15940;48.734;9.112;2023-04-09T02:15:57;97189.72;;;5.60;82.10
9525;BME280;15940;48.734;9.112;2023-04-09T02:18:27;97190.88;;;5.59;82.93
9525;BME280;15940;48.734;9.112;2023-04-09T02:20:55;97180.78;;;5.63;82.54
9525;BME280;15940;48.734;9.112;2023-04-09T02:23:22;97193.31;;;5.66;82.08
9525;BME280;15940;48.734;9.112;2023-04-09T02:25:50;97184.56;;;5.74;82.36
9525;BME280;15940;48.734;9.112;2023-04-09T02:28:18;97178.38;;;5.65;82.55
9525;BME280;15940;48.734;9.112;2023-04-09T02:30:45;97178.38;;;5.65;82.73
9525;BME280;15940;48.734;9.112;2023-04-09T02:33:13;97175.53;;;5.59;82.21
9525;BME280;15940;48.734;9.112;2023-04-09T02:35:40;97175.78;;;5.52;83.59
9525;BME280;15940;48.734;9.112;2023-04-09T02:38:08;97176.97;;;5.51;82.47
9525;BME280;15940;48.734;9.112;2023-04-09T02:40:38;97180.44;;;5.39;82.96
9525;BME280;15940;48.734;9.112;2023-04-09T02:43:05;97184.81;;;5.45;83.18
9525;BME280;15940;48.734;9.112;2023-04-09T02:45:32;97179.88;;;5.44;83.10
9525;BME280;15940;48.734;9.112;2023-04-09T02:47:59;97185.34;;;5.53;83.44
9525;BME280;15940;48.734;9.112;2023-04-09T02:50:27;97181.75;;;5.56;83.17
9525;BME280;15940;48.734;9.112;2023-04-09T02:52:54;97181.09;;;5.43;83.16
9525;BME280;15940;48.734;9.112;2023-04-09T02:55:21;97178.41;;;5.43;83.26
9525;BME280;15940;48.734;9.112;2023-04-09T02:57:48;97177.88;;;5.57;83.18
9525;BME280;15940;48.734;9.112;2023-04-09T03:00:15;97182.34;;;5.51;83.28
9525;BME280;15940;48.734;9.112;2023-04-09T03:02:42;97177.50;;;5.46;83.44
9525;BME280;15940;48.734;9.112;2023-04-09T03:05:09;97181.94;;;5.40;83.54
9525;BME280;15940;48.734;9.112;2023-04-09T03:07:37;97179.50;;;5.33;83.57
9525;BME280;15940;48.734;9.112;2023-04-09T03:10:05;97171.63;;;5.38;84.14
9525;BME280;15940;48.734;9.112;2023-04-09T03:12:32;97173.25;;;5.36;84.83
9525;BME280;15940;48.734;9.112;2023-04-09T03:14:59;97170.09;;;5.50;84.03
9525;BME280;15940;48.734;9.112;2023-04-09T03:17:26;97170.50;;;5.49;83.46
9525;BME280;15940;48.734;9.112;2023-04-09T03:19:56;97167.50;;;5.47;83.76
9525;BME280;15940;48.734;9.112;2023-04-09T03:22:23;97166.31;;;5.48;83.81
9525;BME280;15940;48.734;9.112;2023-04-09T03:24:52;97159.59;;;5.43;83.22
9525;BME280;15940;48.734;9.112;2023-04-09T03:27:18;97167.75;;;5.39;83.45
9525;BME280;15940;48.734;9.112;2023-04-09T03:29:46;97168.41;;;5.43;82.94
9525;BME280;15940;48.734;9.112;2023-04-09T03:32:12;97166.91;;;5.42;83.97
9525;BME280;15940;48.734;9.112;2023-04-09T03:34:39;97165.34;;;5.32;83.79
9525;BME280;15940;48.734;9.112;2023-04-09T03:37:06;97168.03;;;5.32;84.49
9525;BME280;15940;48.734;9.112;2023-04-09T03:39:33;97175.41;;;5.41;85.04
9525;BME280;15940;48.734;9.112;2023-04-09T03:42:01;97174.81;;;5.46;84.24
9525;BME280;15940;48.734;9.112;2023-04-09T03:44:28;97173.78;;;5.43;84.05
9525;BME280;15940;48.734;9.112;2023-04-09T03:46:55;97167.06;;;5.48;83.72
9525;BME280;15940;48.734;9.112;2023-04-09T03:49:22;97168.25;;;5.47;83.24
9525;BME280;15940;48.734;9.112;2023-04-09T03:51:49;97164.06;;;5.46;83.29
9525;BME280;15940;48.734;9.112;2023-04-09T03:54:16;97156.25;;;5.39;83.67
9525;BME280;15940;48.734;9.112;2023-04-09T03:56:43;97161.09;;;5.44;83.89
9525;BME280;15940;48.734;9.112;2023-04-09T03:59:11;97154.75;;;5.38;83.93
9525;BME280;15940;48.734;9.112;2023-04-09T04:01:38;97161.31;;;5.37;83.65
9525;BME280;15940;48.734;9.112;2023-04-09T04:04:05;97159.97;;;5.32;84.12
9525;BME280;15940;48.734;9.112;2023-04-09T04:06:32;97156.38;;;5.35;83.66
9525;BME280;15940;48.734;9.112;2023-04-09T04:09:00;97163.56;;;5.38;84.02
9525;BME280;15940;48.734;9.112;2023-04-09T04:11:27;97158.88;;;5.30;84.47
9525;BME280;15940;48.734;9.112;2023-04-09T04:13:54;97160.41;;;5.31;84.15
9525;BME280;15940;48.734;9.112;2023-04-09T04:16:22;97171.44;;;5.33;84.17
9525;BME280;15940;48.734;9.112;2023-04-09T04:18:49;97166.63;;;5.28;84.02
9525;BME280;15940;48.734;9.112;2023-04-09T04:21:16;97171.47;;;5.20;84.24
9525;BME280;15940;48.734;9.112;2023-04-09T04:23:43;97177.19;;;5.22;84.16
9525;BME280;15940;48.734;9.112;2023-04-09T04:26:10;97174.81;;;5.24;84.23
9525;BME280;15940;48.734;9.112;2023-04-09T04:28:39;97175.69;;;5.21;84.41
9525;BME280;15940;48.734;9.112;2023-04-09T04:31:09;97182.75;;;5.28;85.00
9525;BME280;15940;48.734;9.112;2023-04-09T04:33:40;97183.63;;;5.25;84.59
9525;BME280;15940;48.734;9.112;2023-04-09T04:36:09;97179.44;;;5.24;84.32
9525;BME280;15940;48.734;9.112;2023-04-09T04:38:37;97181.16;;;5.18;84.04
9525;BME280;15940;48.734;9.112;2023-04-09T04:41:05;97186.00;;;5.23;85.13
9525;BME280;15940;48.734;9.112;2023-04-09T04:43:33;97183.03;;;5.30;84.69
9525;BME280;15940;48.734;9.112;2023-04-09T04:46:00;97179.63;;;5.29;84.04
9525;BME280;15940;48.734;9.112;2023-04-09T04:48:28;97188.84;;;5.28;84.41
9525;BME280;15940;48.734;9.112;2023-04-09T04:50:58;97180.38;;;5.30;84.59
9525;BME280;15940;48.734;9.112;2023-04-09T04:53:25;97178.56;;;5.27;83.94
9525;BME280;15940;48.734;9.112;2023-04-09T04:55:53;97184.97;;;5.29;84.11
9525;BME280;15940;48.734;9.112;2023-04-09T04:58:20;97183.03;;;5.30;84.20
9525;BME280;15940;48.734;9.112;2023-04-09T05:00:46;97184.44;;;5.34;84.10
9525;BME280;15940;48.734;9.112;2023-04-09T05:03:14;97182.75;;;5.28;83.65
9525;BME280;15940;48.734;9.112;2023-04-09T05:05:41;97193.31;;;5.22;84.63
9525;BME280;15940;48.734;9.112;2023-04-09T05:08:09;97197.47;;;5.23;84.69
9525;BME280;15940;48.734;9.112;2023-04-09T05:10:36;97189.59;;;5.29;85.23
9525;BME280;15940;48.734;9.112;2023-04-09T05:13:03;97181.75;;;5.34;84.80
9525;BME280;15940;48.734;9.112;2023-04-09T05:15:30;97179.00;;;5.47;83.92
9525;BME280;15940;48.734;9.112;2023-04-09T05:17:57;97179.88;;;5.44;84.21
9525;BME280;15940;48.734;9.112;2023-04-09T05:20:26;97185.78;;;5.52;84.15
9525;BME280;15940;48.734;9.112;2023-04-09T05:22:52;97189.81;;;5.56;84.08
9525;BME280;15940;48.734;9.112;2023-04-09T05:25:21;97190.19;;;5.67;83.66
9525;BME280;15940;48.734;9.112;2023-04-09T05:27:48;97185.03;;;5.51;82.14
9525;BME280;15940;48.734;9.112;2023-04-09T05:30:15;97182.81;;;5.37;82.43
9525;BME280;15940;48.734;9.112;2023-04-09T05:32:42;97183.03;;;5.30;83.22
9525;BME280;15940;48.734;9.112;2023-04-09T05:35:09;97188.84;;;5.28;83.09
9525;BME280;15940;48.734;9.112;2023-04-09T05:37:35;97191.44;;;5.32;83.43
9525;BME280;15940;48.734;9.112;2023-04-09T05:40:04;97194.16;;;5.54;84.82
9525;BME280;15940;48.734;9.112;2023-04-09T05:42:32;97189.34;;;5.70;84.34
9525;BME280;15940;48.734;9.112;2023-04-09T05:44:59;97187.47;;;5.80;83.46
9525;BME280;15940;48.734;9.112;2023-04-09T05:47:26;97193.00;;;5.86;83.15
9525;BME280;15940;48.734;9.112;2023-04-09T05:49:53;97192.69;;;5.84;82.80
9525;BME280;15940;48.734;9.112;2023-04-09T05:52:20;97195.16;;;5.91;82.89
9525;BME280;15940;48.734;9.112;2023-04-09T05:54:47;97196.13;;;6.06;82.97
9525;BME280;15940;48.734;9.112;2023-04-09T05:57:14;97198.25;;;6.11;82.40
9525;BME280;15940;48.734;9.112;2023-04-09T05:59:42;97197.25;;;6.18;82.22
9525;BME280;15940;48.734;9.112;2023-04-09T06:02:10;97192.75;;;6.15;81.64
9525;BME280;15940;48.734;9.112;2023-04-09T06:04:36;97196.06;;;6.19;82.32
9525;BME280;15940;48.734;9.112;2023-04-09T06:07:03;97201.94;;;6.26;81.34
9525;BME280;15940;48.734;9.112;2023-04-09T06:09:31;97205.09;;;6.34;81.83
9525;BME280;15940;48.734;9.112;2023-04-09T06:11:57;97208.03;;;6.58;81.33
9525;BME280;15940;48.734;9.112;2023-04-09T06:14:25;97200.75;;;6.68;80.74
9525;BME280;15940;48.734;9.112;2023-04-09T06:16:53;97195.88;;;6.84;80.54
9525;BME280;15940;48.734;9.112;2023-04-09T06:19:21;97203.06;;;6.97;78.68
9525;BME280;15940;48.734;9.112;2023-04-09T06:21:48;97200.81;;;6.95;78.55
9525;BME280;15940;48.734;9.112;2023-04-09T06:24:15;97190.03;;;6.86;78.25
9525;BME280;15940;48.734;9.112;2023-04-09T06:26:42;97192.53;;;6.80;78.82
9525;BME280;15940;48.734;9.112;2023-04-09T06:29:09;97198.34;;;6.70;78.91
9525;BME280;15940;48.734;9.112;2023-04-09T06:31:36;97196.88;;;6.78;79.25
9525;BME280;15940;48.734;9.112;2023-04-09T06:34:04;97199.59;;;6.87;78.80
9525;BME280;15940;48.734;9.112;2023-04-09T06:36:31;97189.13;;;6.89;78.84
9525;BME280;15940;48.734;9.112;2023-04-09T06:38:59;97189.44;;;7.00;77.66
9525;BME280;15940;48.734;9.112;2023-04-09T06:41:26;97192.03;;;7.13;77.63
9525;BME280;15940;48.734;9.112;2023-04-09T06:43:53;97195.78;;;7.25;75.76
9525;BME280;15940;48.734;9.112;2023-04-09T06:46:20;97197.28;;;7.35;74.96
9525;BME280;15940;48.734;9.112;2023-04-09T06:48:48;97208.81;;;7.54;75.37
9525;BME280;15940;48.734;9.112;2023-04-09T06:51:16;97212.41;;;7.69;74.35
9525;BME280;15940;48.734;9.112;2023-04-09T06:53:43;97205.34;;;7.81;73.49
9525;BME280;15940;48.734;9.112;2023-04-09T06:56:12;97211.31;;;7.85;72.79
9525;BME280;15940;48.734;9.112;2023-04-09T06:58:39;97205.03;;;7.97;72.66
9525;BME280;15940;48.734;9.112;2023-04-09T07:01:06;97211.75;;;8.01;72.90
9525;BME280;15940;48.734;9.112;2023-04-09T07:03:33;97215.63;;;8.10;73.17
9525;BME280;15940;48.734;9.112;2023-04-09T07:06:00;97217.25;;;8.25;71.86
9525;BME280;15940;48.734;9.112;2023-04-09T07:08:28;97211.47;;;8.51;71.42
9525;BME280;15940;48.734;9.112;2023-04-09T07:10:55;97216.31;;;8.80;69.73
9525;BME280;15940;48.734;9.112;2023-04-09T07:13:22;97211.63;;;9.13;69.79
9525;BME280;15940;48.734;9.112;2023-04-09T07:15:49;97206.78;;;8.94;68.24
9525;BME280;15940;48.734;9.112;2023-04-09T07:18:16;97211.00;;;8.95;68.54
9525;BME280;15940;48.734;9.112;2023-04-09T07:20:43;97213.81;;;9.24;67.22
9525;BME280;15940;48.734;9.112;2023-04-09T07:23:10;97209.13;;;9.49;65.18
9525;BME280;15940;48.734;9.112;2023-04-09T07:25:38;97219.13;;;9.57;64.45
9525;BME280;15940;48.734;9.112;2023-04-09T07:28:05;97208.69;;;9.65;63.68
9525;BME280;15940;48.734;9.112;2023-04-09T07:30:32;97217.09;;;9.82;64.06
9525;BME280;15940;48.734;9.112;2023-04-09T07:32:59;97219.19;;;10.01;62.36
9525;BME280;15940;48.734;9.112;2023-04-09T07:35:26;97216.31;;;10.05;60.68
9525;BME280;15940;48.734;9.112;2023-04-09T07:37:53;97217.34;;;10.22;61.64
9525;BME280;15940;48.734;9.112;2023-04-09T07:40:20;97219.81;;;10.70;61.55
9525;BME280;15940;48.734;9.112;2023-04-09T07:42:48;97221.38;;;11.12;58.84
9525;BME280;15940;48.734;9.112;2023-04-09T07:45:15;97222.38;;;11.14;58.03
9525;BME280;15940;48.734;9.112;2023-04-09T07:47:42;97225.78;;;10.74;56.81
9525;BME280;15940;48.734;9.112;2023-04-09T07:50:10;97223.91;;;10.80;57.12
9525;BME280;15940;48.734;9.112;2023-04-09T07:52:37;97232.31;;;10.82;57.16
9525;BME280;15940;48.734;9.112;2023-04-09T07:55:05;97231.63;;;10.87;58.49
9525;BME280;15940;48.734;9.112;2023-04-09T07:57:32;97233.19;;;11.09;56.05
9525;BME280;15940;48.734;9.112;2023-04-09T08:00:00;97236.91;;;11.32;55.68
9525;BME280;15940;48.734;9.112;2023-04-09T08:02:28;97232.38;;;11.43;52.44
9525;BME280;15940;48.734;9.112;2023-04-09T08:04:55;97236.47;;;10.63;54.16
9525;BME280;15940;48.734;9.112;2023-04-09T08:07:22;97238.81;;;10.26;57.53
9525;BME280;15940;48.734;9.112;2023-04-09T08:09:49;97233.72;;;10.78;55.00
9525;BME280;15940;48.734;9.112;2023-04-09T08:12:17;97244.03;;;10.29;54.56
9525;BME280;15940;48.734;9.112;2023-04-09T08:14:43;97246.53;;;10.03;56.25
9525;BME280;15940;48.734;9.112;2023-04-09T08:17:12;97239.75;;;10.52;58.03
9525;BME280;15940;48.734;9.112;2023-04-09T08:19:39;97230.16;;;10.86;55.95
9525;BME280;15940;48.734;9.112;2023-04-09T08:22:06;97240.16;;;11.36;55.13
9525;BME280;15940;48.734;9.112;2023-04-09T08:24:33;97229.44;;;11.88;54.67
9525;BME280;15940;48.734;9.112;2023-04-09T08:27:00;97238.00;;;12.07;53.13
9525;BME280;15940;48.734;9.112;2023-04-09T08:29:28;97241.25;;;12.11;53.14
9525;BME280;15940;48.734;9.112;2023-04-09T08:31:56;97237.47;;;12.28;52.31
9525;BME280;15940;48.734;9.112;2023-04-09T08:34:25;97237.09;;;12.78;51.99
9525;BME280;15940;48.734;9.112;2023-04-09T08:36:52;97243.09;;;12.88;49.92
9525;BME280;15940;48.734;9.112;2023-04-09T08:39:18;97243.47;;;12.70;51.20
9525;BME280;15940;48.734;9.112;2023-04-09T08:41:46;97248.88;;;12.33;48.09
9525;BME280;15940;48.734;9.112;2023-04-09T08:44:13;97242.94;;;12.34;46.37
9525;BME280;15940;48.734;9.112;2023-04-09T08:46:40;97250.44;;;12.45;49.75
9525;BME280;15940;48.734;9.112;2023-04-09T08:49:08;97241.22;;;12.68;46.66
9525;BME280;15940;48.734;9.112;2023-04-09T08:51:37;97248.44;;;12.71;49.10
9525;BME280;15940;48.734;9.112;2023-04-09T08:54:04;97250.34;;;12.65;48.00
9525;BME280;15940;48.734;9.112;2023-04-09T08:56:32;97251.09;;;12.66;47.51
9525;BME280;15940;48.734;9.112;2023-04-09T08:58:59;97250.78;;;13.32;48.51
9525;BME280;15940;48.734;9.112;2023-04-09T09:01:28;97251.97;;;13.80;47.96
9525;BME280;15940;48.734;9.112;2023-04-09T09:03:59;97249.69;;;13.61;47.74
9525;BME280;15940;48.734;9.112;2023-04-09T09:06:28;97255.47;;;13.97;47.00
9525;BME280;15940;48.734;9.112;2023-04-09T09:09:06;97262.16;;;13.31;47.94
9525;BME280;15940;48.734;9.112;2023-04-09T09:11:35;97263.03;;;12.42;50.83
9525;BME280;15940;48.734;9.112;2023-04-09T09:14:05;97261.13;;;12.22;47.17
9525;BME280;15940;48.734;9.112;2023-04-09T09:16:34;97258.81;;;12.41;42.54
9525;BME280;15940;48.734;9.112;2023-04-09T09:19:05;97256.53;;;13.03;43.86
9525;BME280;15940;48.734;9.112;2023-04-09T09:21:32;97263.25;;;12.70;45.10
9525;BME280;15940;48.734;9.112;2023-04-09T09:24:01;97259.16;;;12.54;49.88
9525;BME280;15940;48.734;9.112;2023-04-09T09:26:29;97263.50;;;12.72;46.77
9525;BME280;15940;48.734;9.112;2023-04-09T09:28:57;97264.19;;;12.10;47.15
9525;BME280;15940;48.734;9.112;2023-04-09T09:31:26;97276.03;;;11.25;49.93
9525;BME280;15940;48.734;9.112;2023-04-09T09:33:53;97266.63;;;11.41;50.73
9525;BME280;15940;48.734;9.112;2023-04-09T09:36:30;97272.53;;;11.04;51.50
9525;BME280;15940;48.734;9.112;2023-04-09T09:38:59;97274.34;;;10.78;50.91
9525;BME280;15940;48.734;9.112;2023-04-09T09:41:31;97278.81;;;11.31;49.01
9525;BME280;15940;48.734;9.112;2023-04-09T09:43:58;97270.16;;;11.47;51.57
9525;BME280;15940;48.734;9.112;2023-04-09T09:46:25;97271.63;;;11.28;49.73
9525;BME280;15940;48.734;9.112;2023-04-09T09:48:53;97269.19;;;11.70;50.43
9525;BME280;15940;48.734;9.112;2023-04-09T09:51:25;97260.81;;;12.78;48.62
9525;BME280;15940;48.734;9.112;2023-04-09T09:56:15;97261.31;;;13.56;47.46
9525;BME280;15940;48.734;9.112;2023-04-09T09:58:48;97259.56;;;13.16;47.14
9525;BME280;15940;48.734;9.112;2023-04-09T10:03:51;97264.56;;;12.49;46.90
9525;BME280;15940;48.734;9.112;2023-04-09T10:06:18;97259.09;;;12.17;47.57
9525;BME280;15940;48.734;9.112;2023-04-09T10:08:47;97259.41;;;11.99;48.47
9525;BME280;15940;48.734;9.112;2023-04-09T10:11:15;97266.91;;;12.36;49.33
9525;BME280;15940;48.734;9.112;2023-04-09T10:13:49;97253.16;;;11.93;46.65
9525;BME280;15940;48.734;9.112;2023-04-09T10:16:16;97262.00;;;11.88;49.91
9525;BME280;15940;48.734;9.112;2023-04-09T10:18:43;97262.81;;;11.94;49.58
9525;BME280;15940;48.734;9.112;2023-04-09T10:21:23;97268.22;;;12.14;47.54
9525;BME280;15940;48.734;9.112;2023-04-09T10:23:52;97261.63;;;12.00;46.97
9525;BME280;15940;48.734;9.112;2023-04-09T10:26:19;97269.72;;;11.54;48.82
9525;BME280;15940;48.734;9.112;2023-04-09T10:28:50;97266.81;;;11.58;48.00
9525;BME280;15940;48.734;9.112;2023-04-09T10:31:28;97259.28;;;11.27;48.66
9525;BME280;15940;48.734;9.112;2023-04-09T10:34:10;97258.59;;;11.32;48.86
9525;BME280;15940;48.734;9.112;2023-04-09T10:36:43;97259.34;;;11.12;48.57
9525;BME280;15940;48.734;9.112;2023-04-09T10:39:13;97254.53;;;11.22;50.19
9525;BME280;15940;48.734;9.112;2023-04-09T10:41:41;97256.72;;;11.38;50.71
9525;BME280;15940;48.734;9.112;2023-04-09T10:44:20;97246.31;;;11.36;46.90
9525;BME280;15940;48.734;9.112;2023-04-09T10:49:19;97244.69;;;11.44;46.59
9525;BME280;15940;48.734;9.112;2023-04-09T10:51:53;97251.56;;;11.40;46.83
9525;BME280;15940;48.734;9.112;2023-04-09T10:54:43;97246.41;;;11.42;46.87
9525;BME280;15940;48.734;9.112;2023-04-09T10:57:17;97237.75;;;11.38;47.29
9525;BME280;15940;48.734;9.112;2023-04-09T10:59:46;97247.72;;;11.47;47.01
9525;BME280;15940;48.734;9.112;2023-04-09T11:03:05;97253.25;;;12.24;45.95
9525;BME280;15940;48.734;9.112;2023-04-09T11:05:39;97242.03;;;12.43;43.62
9525;BME280;15940;48.734;9.112;2023-04-09T11:08:08;97244.22;;;12.39;44.86
9525;BME280;15940;48.734;9.112;2023-04-09T11:10:37;97243.63;;;12.29;44.84
9525;BME280;15940;48.734;9.112;2023-04-09T11:13:05;97245.16;;;12.62;44.00
9525;BME280;15940;48.734;9.112;2023-04-09T11:15:34;97238.66;;;12.53;44.04
9525;BME280;15940;48.734;9.112;2023-04-09T11:18:02;97231.44;;;12.45;45.89
9525;BME280;15940;48.734;9.112;2023-04-09T11:20:33;97236.06;;;12.70;46.80
9525;BME280;15940;48.734;9.112;2023-04-09T11:23:01;97241.59;;;12.87;44.28
9525;BME280;15940;48.734;9.112;2023-04-09T11:25:31;97231.91;;;13.18;44.96
9525;BME280;15940;48.734;9.112;2023-04-09T11:27:59;97235.16;;;13.22;43.44
9525;BME280;15940;48.734;9.112;2023-04-09T11:30:27;97230.09;;;13.03;43.66
9525;BME280;15940;48.734;9.112;2023-04-09T11:32:55;97232.63;;;12.75;45.69
9525;BME280;15940;48.734;9.112;2023-04-09T11:35:22;97228.88;;;12.36;43.22
9525;BME280;15940;48.734;9.112;2023-04-09T11:37:50;97235.81;;;12.11;42.96
9525;BME280;15940;48.734;9.112;2023-04-09T11:40:22;97229.78;;;12.90;42.46
9525;BME280;15940;48.734;9.112;2023-04-09T11:42:51;97223.63;;;13.43;41.50
9525;BME280;15940;48.734;9.112;2023-04-09T11:45:21;97225.13;;;13.44;42.27
9525;BME280;15940;48.734;9.112;2023-04-09T11:47:48;97229.41;;;13.14;43.08
9525;BME280;15940;48.734;9.112;2023-04-09T11:50:16;97232.69;;;12.81;43.18
9525;BME280;15940;48.734;9.112;2023-04-09T11:52:44;97228.53;;;13.28;44.87
9525;BME280;15940;48.734;9.112;2023-04-09T11:55:23;97233.31;;;13.07;45.05
9525;BME280;15940;48.734;9.112;2023-04-09T11:57:52;97221.63;;;12.90;46.22
9525;BME280;15940;48.734;9.112;2023-04-09T12:00:20;97221.00;;;12.75;46.43
9525;BME280;15940;48.734;9.112;2023-04-09T12:02:57;97223.91;;;12.66;45.71
9525;BME280;15940;48.734;9.112;2023-04-09T12:05:26;97230.03;;;12.23;44.77
9525;BME280;15940;48.734;9.112;2023-04-09T12:07:57;97222.94;;;12.69;49.55
9525;BME280;15940;48.734;9.112;2023-04-09T12:10:29;97228.56;;;13.39;41.95
9525;BME280;15940;48.734;9.112;2023-04-09T12:13:01;97220.31;;;13.99;41.71
9525;BME280;15940;48.734;9.112;2023-04-09T12:15:31;97228.28;;;14.36;39.09
9525;BME280;15940;48.734;9.112;2023-04-09T12:17:59;97226.06;;;14.57;40.71
9525;BME280;15940;48.734;9.112;2023-04-09T12:20:28;97230.81;;;14.51;39.12
9525;BME280;15940;48.734;9.112;2023-04-09T12:22:56;97223.00;;;13.82;41.45
9525;BME280;15940;48.734;9.112;2023-04-09T12:25:25;97229.75;;;14.20;38.89
9525;BME280;15940;48.734;9.112;2023-04-09T12:27:54;97220.38;;;14.21;42.88
9525;BME280;15940;48.734;9.112;2023-04-09T12:30:21;97218.16;;;14.31;41.57
9525;BME280;15940;48.734;9.112;2023-04-09T12:32:48;97208.22;;;14.67;41.25
9525;BME280;15940;48.734;9.112;2023-04-09T12:35:16;97216.91;;;14.49;41.87
9525;BME280;15940;48.734;9.112;2023-04-09T12:37:43;97215.16;;;14.57;41.37
9525;BME280;15940;48.734;9.112;2023-04-09T12:40:10;97211.44;;;14.15;40.55
9525;BME280;15940;48.734;9.112;2023-04-09T12:42:39;97204.69;;;13.83;42.40
9525;BME280;15940;48.734;9.112;2023-04-09T12:45:09;97214.63;;;13.97;43.19
9525;BME280;15940;48.734;9.112;2023-04-09T12:47:36;97202.28;;;14.41;44.91
9525;BME280;15940;48.734;9.112;2023-04-09T12:50:07;97203.97;;;14.94;42.36
9525;BME280;15940;48.734;9.112;2023-04-09T12:52:34;97206.50;;;14.70;42.09
9525;BME280;15940;48.734;9.112;2023-04-09T12:55:02;97185.44;;;14.14;40.19
9525;BME280;15940;48.734;9.112;2023-04-09T12:57:29;97191.63;;;14.15;42.06
9525;BME280;15940;48.734;9.112;2023-04-09T12:59:56;97191.13;;;14.16;42.58
9525;BME280;15940;48.734;9.112;2023-04-09T13:02:24;97193.34;;;14.18;40.48
9525;BME280;15940;48.734;9.112;2023-04-09T13:04:51;97189.88;;;13.95;41.36
9525;BME280;15940;48.734;9.112;2023-04-09T13:07:19;97189.03;;;13.50;41.79
9525;BME280;15940;48.734;9.112;2023-04-09T13:09:46;97184.44;;;13.19;44.80
9525;BME280;15940;48.734;9.112;2023-04-09T13:12:15;97180.94;;;13.12;44.30
9525;BME280;15940;48.734;9.112;2023-04-09T13:14:43;97184.09;;;13.00;44.43
9525;BME280;15940;48.734;9.112;2023-04-09T13:17:11;97176.47;;;13.09;43.57
9525;BME280;15940;48.734;9.112;2023-04-09T13:19:39;97172.47;;;13.59;44.09
9525;BME280;15940;48.734;9.112;2023-04-09T13:22:06;97171.50;;;13.73;44.57
9525;BME280;15940;48.734;9.112;2023-04-09T13:24:33;97164.06;;;13.73;43.22
9525;BME280;15940;48.734;9.112;2023-04-09T13:27:01;97172.69;;;13.50;43.89
9525;BME280;15940;48.734;9.112;2023-04-09T13:29:29;97170.00;;;13.61;42.66
9525;BME280;15940;48.734;9.112;2023-04-09T13:31:57;97169.50;;;13.57;41.59